Time;durP1;ratioP1;P1;durP2;ratioP2;P2;SDS_P1;SDS_P2;PMS_P1;PMS_P2;Temp;Humidity;BMP_temperature;BMP_pressure;BME280_temperature;BME280_humidity;BME280_pressure;Samples;Min_cycle;Max_cycle;Signal;HPM_P1;HPM_P2
2021/06/24 00:00:07;;;;;;;1.73;1.63;;;;;;;20.53;65.84;99033.31;5089743;28;40441;-78
2021/06/24 00:02:38;;;;;;;1.87;1.77;;;;;;;20.52;65.73;99026.25;5091265;28;41750;-75
2021/06/24 00:05:09;;;;;;;2.00;1.80;;;;;;;20.50;66.15;99026.41;5069448;28;42858;-79
2021/06/24 00:07:37;;;;;;;1.87;1.77;;;;;;;20.42;66.01;99027.16;5086632;28;42618;-80
2021/06/24 00:10:05;;;;;;;1.43;1.30;;;;;;;20.45;66.13;99026.00;5069347;28;41098;-79
2021/06/24 00:12:33;;;;;;;2.57;2.07;;;;;;;20.44;65.81;99035.94;5070282;28;41611;-77
2021/06/24 00:15:01;;;;;;;2.80;2.47;;;;;;;20.47;66.02;99039.31;5068582;28;43485;-80
2021/06/24 00:17:28;;;;;;;1.60;1.50;;;;;;;20.45;65.85;99036.78;5077572;28;42688;-79
2021/06/24 00:19:57;;;;;;;1.73;1.63;;;;;;;20.47;66.43;99039.31;5091629;28;40443;-75
2021/06/24 00:22:25;;;;;;;2.83;2.23;;;;;;;20.44;66.65;99041.31;5090028;28;41742;-78
2021/06/24 00:24:52;;;;;;;2.10;1.90;;;;;;;20.41;66.70;99035.38;5073868;28;41608;-76
2021/06/24 00:27:20;;;;;;;1.77;1.67;;;;;;;20.36;67.03;99038.53;5090581;28;43052;-76
2021/06/24 00:29:48;;;;;;;2.57;2.37;;;;;;;20.35;66.92;99042.25;5088828;28;39920;-80
2021/06/24 00:32:15;;;;;;;2.23;2.03;;;;;;;20.34;67.03;99045.03;5090403;28;41324;-80
2021/06/24 00:34:43;;;;;;;2.33;2.00;;;;;;;20.33;66.92;99049.56;5089474;28;42789;-80
2021/06/24 00:37:12;;;;;;;2.13;1.97;;;;;;;20.36;67.00;99049.31;5090311;28;42682;-75
2021/06/24 00:39:40;;;;;;;2.10;2.00;;;;;;;20.36;66.83;99054.69;5089363;28;39681;-78
2021/06/24 00:42:09;;;;;;;2.07;1.90;;;;;;;20.40;66.64;99052.50;5089519;28;41569;-78
2021/06/24 00:44:37;;;;;;;1.90;1.80;;;;;;;20.37;66.98;99056.38;5072376;28;42670;-74
2021/06/24 00:47:05;;;;;;;2.67;1.70;;;;;;;20.41;66.90;99051.53;5088556;28;42247;-74
2021/06/24 00:49:33;;;;;;;2.13;1.97;;;;;;;20.41;66.95;99057.75;5090717;28;39531;-79
2021/06/24 00:52:01;;;;;;;2.47;1.90;;;;;;;20.43;66.50;99057.59;5089404;28;40998;-78
2021/06/24 00:54:30;;;;;;;1.57;1.47;;;;;;;20.45;66.28;99058.28;5089623;28;43158;-76
2021/06/24 00:56:58;;;;;;;1.87;1.77;;;;;;;20.46;66.27;99043.00;5072760;28;41278;-76
2021/06/24 00:59:28;;;;;;;1.53;1.43;;;;;;;20.50;66.16;99052.47;5089488;28;20223;-75
2021/06/24 01:01:56;;;;;;;2.40;2.20;;;;;;;20.51;66.51;99046.09;5088366;28;41790;-76
2021/06/24 01:04:24;;;;;;;1.43;1.33;;;;;;;20.51;66.11;99046.09;5090040;28;42392;-79
2021/06/24 01:06:54;;;;;;;3.97;2.93;;;;;;;20.52;66.08;99047.78;5088832;28;42214;-77
2021/06/24 01:09:24;;;;;;;1.57;1.47;;;;;;;20.50;66.31;99039.84;5088640;28;40067;-79
2021/06/24 01:11:55;;;;;;;1.67;1.57;;;;;;;20.43;66.33;99023.47;5089850;28;42238;-76
2021/06/24 01:14:23;;;;;;;1.80;1.37;;;;;;;20.49;66.35;99026.56;5088973;28;42392;-77
2021/06/24 01:16:53;;;;;;;1.93;1.50;;;;;;;20.52;66.43;99031.63;5080452;28;41159;-71
2021/06/24 01:19:22;;;;;;;1.43;1.33;;;;;;;20.40;66.79;99007.63;5100116;28;40105;-72
2021/06/24 01:21:51;;;;;;;1.47;1.37;;;;;;;20.52;66.35;99031.63;5100854;28;42685;-71
2021/06/24 01:24:21;;;;;;;1.80;1.63;;;;;;;20.51;67.65;99019.19;5090009;28;41367;-71
2021/06/24 01:26:49;;;;;;;1.43;1.33;;;;;;;20.52;67.02;99023.56;5106099;28;42797;-74
2021/06/24 01:29:17;;;;;;;1.63;1.50;;;;;;;20.49;67.08;99015.78;5100796;28;40775;-71
2021/06/24 01:31:45;;;;;;;2.43;1.50;;;;;;;20.50;66.80;99017.50;5084885;28;40573;-71
2021/06/24 01:34:14;;;;;;;1.57;1.47;;;;;;;20.48;66.87;99003.34;5100326;28;41949;-71
2021/06/24 01:36:42;;;;;;;2.00;1.33;;;;;;;20.52;66.89;99007.41;5098591;28;43248;-74
2021/06/24 01:39:12;;;;;;;1.57;1.47;;;;;;;20.50;66.75;99014.81;5091127;28;39931;-81
2021/06/24 01:41:41;;;;;;;1.90;1.70;;;;;;;20.50;66.99;99009.41;5089863;28;42290;-78
2021/06/24 01:44:28;;;;;;;1.67;1.57;;;;;;;20.49;66.77;99005.03;5091283;28;42341;-83
2021/06/24 01:46:56;;;;;;;1.60;1.50;;;;;;;20.48;67.40;98997.97;5092805;28;42345;-76
2021/06/24 01:49:24;;;;;;;1.60;1.50;;;;;;;20.44;66.82;98982.13;5091039;28;41430;-75
2021/06/24 01:51:51;;;;;;;1.90;1.60;;;;;;;20.44;66.71;98984.81;5091776;28;41527;-77
2021/06/24 01:54:19;;;;;;;1.70;1.60;;;;;;;20.44;66.78;98975.88;5091200;28;42569;-74
2021/06/24 01:56:49;;;;;;;2.07;1.77;;;;;;;20.38;67.04;98966.63;5088015;28;43206;-79
2021/06/24 01:59:18;;;;;;;1.70;1.60;;;;;;;20.41;66.74;98971.66;5088523;28;40609;-76
2021/06/24 02:02:01;;;;;;;2.10;1.90;;;;;;;20.37;67.06;98959.53;5088155;28;42580;-81
2021/06/24 02:05:08;;;;;;;1.43;1.33;;;;;;;20.31;66.98;98960.13;5065391;28;42671;-79
2021/06/24 02:07:42;;;;;;;2.33;1.80;;;;;;;20.24;67.21;98956.38;5050751;28;41123;-76
2021/06/24 02:10:23;;;;;;;1.60;1.50;;;;;;;20.20;67.67;98962.19;5071304;28;39841;-82
2021/06/24 02:12:58;;;;;;;2.77;2.27;;;;;;;20.14;67.42;98957.44;5070910;28;41020;-75
2021/06/24 02:15:27;;;;;;;1.80;1.60;;;;;;;20.13;67.76;98961.13;5087283;28;43579;-82
2021/06/24 02:17:55;;;;;;;3.07;1.80;;;;;;;20.10;67.47;98973.03;5088978;28;41381;-79
2021/06/24 02:20:37;;;;;;;1.33;1.17;;;;;;;20.10;67.45;98983.78;5088076;28;40812;-81
2021/06/24 02:23:27;;;;;;;1.77;1.67;;;;;;;20.11;67.15;98981.94;5089416;28;41724;-77
2021/06/24 02:26:09;;;;;;;2.20;2.00;;;;;;;20.11;67.30;98990.00;5087459;28;42531;-76
2021/06/24 02:28:53;;;;;;;2.63;1.83;;;;;;;20.13;67.35;98994.25;5071376;28;41462;-77
2021/06/24 02:31:30;;;;;;;1.70;1.50;;;;;;;20.17;67.07;99001.00;5087884;28;40357;-79
2021/06/24 02:34:05;;;;;;;3.03;1.40;;;;;;;20.20;66.83;98999.84;5088142;28;41442;-76
2021/06/24 02:36:49;;;;;;;1.40;1.30;;;;;;;20.20;66.89;99006.06;5088343;28;43423;-80
2021/06/24 02:39:17;;;;;;;1.67;1.57;;;;;;;20.22;66.69;99004.06;5086686;28;41814;-74
2021/06/24 02:41:46;;;;;;;1.40;1.30;;;;;;;20.25;66.50;99009.16;5087531;28;42652;-80
2021/06/24 02:44:15;;;;;;;1.93;1.80;;;;;;;20.22;66.45;98997.84;5086704;28;41512;-78
2021/06/24 02:46:43;;;;;;;2.37;2.17;;;;;;;20.29;66.74;99009.69;5089245;28;44325;-81
2021/06/24 02:49:11;;;;;;;2.03;1.67;;;;;;;20.29;66.77;99005.16;5086874;28;42951;-75
2021/06/24 02:51:53;;;;;;;1.17;1.13;;;;;;;20.30;66.68;99000.63;5089286;28;39821;-80
2021/06/24 02:54:23;;;;;;;2.10;1.60;;;;;;;20.29;66.74;99001.59;5074678;28;40673;-80
2021/06/24 02:56:58;;;;;;;1.53;1.43;;;;;;;20.28;66.49;99003.44;5091190;28;42843;-77
2021/06/24 02:59:46;;;;;;;1.40;1.30;;;;;;;20.28;66.62;98999.91;5092367;28;42336;-75
2021/06/24 03:02:15;;;;;;;1.23;1.13;;;;;;;20.29;66.64;98991.69;5090881;28;40551;-78
2021/06/24 03:04:45;;;;;;;2.00;1.90;;;;;;;20.29;66.41;98996.22;5090443;28;41706;-79
2021/06/24 03:07:13;;;;;;;1.73;1.43;;;;;;;20.17;67.44;98987.53;5091384;28;43226;-73
2021/06/24 03:10:01;;;;;;;2.77;2.03;;;;;;;19.97;68.91;98977.94;5091853;28;42786;-72
2021/06/24 03:12:32;;;;;;;1.57;1.47;;;;;;;19.78;70.06;98986.16;5091136;28;39861;-77
2021/06/24 03:15:01;;;;;;;1.50;1.40;;;;;;;19.48;70.53;98952.34;5091719;28;42175;-72
2021/06/24 03:17:29;;;;;;;1.57;1.47;;;;;;;19.60;71.26;98980.72;5090575;28;42736;-76
2021/06/24 03:19:58;;;;;;;1.60;1.50;;;;;;;19.53;72.44;98987.69;5092176;28;42128;-71
2021/06/24 03:22:26;;;;;;;2.33;2.10;;;;;;;19.48;71.84;98992.63;5090948;28;39814;-81
2021/06/24 03:24:54;;;;;;;2.40;2.20;;;;;;;19.45;71.72;99004.50;5074628;28;41714;-75
2021/06/24 03:27:28;;;;;;;2.40;1.70;;;;;;;19.43;72.03;99006.50;5091378;28;41767;-77
2021/06/24 03:30:17;;;;;;;2.33;2.13;;;;;;;19.36;71.69;99016.16;5090048;28;42561;-77
2021/06/24 03:32:45;;;;;;;2.53;2.03;;;;;;;19.34;72.21;99015.44;5090344;28;40614;-78
2021/06/24 03:35:14;;;;;;;2.20;1.43;;;;;;;19.30;71.82;99019.41;5090265;28;41764;-74
2021/06/24 03:37:42;;;;;;;2.23;2.03;;;;;;;19.28;73.09;99008.00;5090206;28;42664;-73
2021/06/24 03:40:17;;;;;;;1.90;1.67;;;;;;;19.30;72.65;99005.97;5090333;28;42814;-74
2021/06/24 03:42:45;;;;;;;2.30;2.10;;;;;;;19.33;72.27;99005.69;5090211;28;39725;-77
2021/06/24 03:45:16;;;;;;;2.13;1.93;;;;;;;19.35;72.17;99007.25;5090314;28;40634;-81
2021/06/24 03:47:45;;;;;;;1.70;1.60;;;;;;;19.41;71.65;99018.41;5090167;28;43254;-80
2021/06/24 03:50:15;;;;;;;1.67;1.50;;;;;;;19.47;71.33;99018.66;5090181;28;42172;-77
2021/06/24 03:52:47;;;;;;;1.43;1.33;;;;;;;19.47;71.18;99018.66;5090286;28;38930;-74
2021/06/24 03:55:17;;;;;;;1.10;1.10;;;;;;;19.59;71.03;99016.63;5090966;28;42245;-74
2021/06/24 03:57:44;;;;;;;1.63;1.53;;;;;;;19.62;71.06;99017.19;5072830;28;42413;-73
2021/06/24 04:00:23;;;;;;;1.40;1.30;;;;;;;19.66;71.01;99021.25;5089684;28;42336;-76
2021/06/24 04:02:57;;;;;;;1.47;1.30;;;;;;;19.64;70.75;99028.66;5073259;28;38887;-74
2021/06/24 04:05:36;;;;;;;1.27;1.17;;;;;;;19.65;71.36;99016.91;5073130;28;41123;-74
2021/06/24 04:08:06;;;;;;;2.60;1.80;;;;;;;19.64;71.23;99023.28;5089384;28;43435;-73
2021/06/24 04:10:37;;;;;;;1.30;1.20;;;;;;;19.65;71.10;99024.97;5072866;28;41250;-77
2021/06/24 04:13:06;;;;;;;1.37;1.27;;;;;;;19.66;71.21;99029.31;5072321;28;39041;-72
2021/06/24 04:15:36;;;;;;;1.77;1.67;;;;;;;19.63;71.37;99020.72;5090249;28;42467;-75
2021/06/24 04:18:06;;;;;;;1.43;1.33;;;;;;;19.66;71.46;99026.63;5069214;28;43070;-78
2021/06/24 04:20:38;;;;;;;1.57;1.47;;;;;;;19.67;71.52;99022.09;5071605;28;42590;-78
2021/06/24 04:23:09;;;;;;;1.70;1.47;;;;;;;19.71;71.76;99020.81;4987362;28;39765;-79
2021/06/24 04:25:51;;;;;;;2.53;2.23;;;;;;;19.71;72.14;99016.28;5049875;28;41753;-74
2021/06/24 04:28:18;;;;;;;1.50;1.40;;;;;;;19.65;73.19;99011.53;5075997;28;43746;-75
2021/06/24 04:31:13;;;;;;;2.07;1.87;;;;;;;19.62;73.17;99016.34;5092633;28;43488;-77
2021/06/24 04:33:41;;;;;;;3.20;2.20;;;;;;;19.56;73.49;99012.41;5073297;28;39000;-77
2021/06/24 04:36:31;;;;;;;2.03;1.70;;;;;;;19.52;73.54;99011.03;5048511;28;41334;-74
2021/06/24 04:39:06;;;;;;;3.77;1.80;;;;;;;19.46;73.77;99006.19;5032471;28;41822;-80
2021/06/24 04:41:35;;;;;;;2.90;2.27;;;;;;;19.41;74.21;99003.09;5047970;28;42137;-79
2021/06/24 04:44:07;;;;;;;2.33;1.53;;;;;;;19.41;73.82;99005.78;5066518;28;40584;-79
2021/06/24 04:46:38;;;;;;;2.50;1.33;;;;;;;19.40;73.87;99000.59;5051775;28;41920;-75
2021/06/24 04:49:08;;;;;;;1.70;1.60;;;;;;;19.43;74.18;99002.97;5068955;28;43501;-78
2021/06/24 04:52:08;;;;;;;1.57;1.47;;;;;;;19.44;73.85;99005.50;5057543;28;42413;-77
2021/06/24 04:54:49;;;;;;;1.63;1.50;;;;;;;19.44;74.07;99002.81;5067049;28;39868;-75
2021/06/24 04:57:17;;;;;;;2.23;1.90;;;;;;;19.48;74.00;98998.00;5068667;28;41928;-75
2021/06/24 05:00:06;;;;;;;1.63;1.53;;;;;;;19.50;74.21;98996.91;5068474;28;42502;-73
2021/06/24 05:02:58;;;;;;;2.57;2.10;;;;;;;19.52;73.29;99000.28;5049434;28;42803;-74
2021/06/24 05:05:34;;;;;;;2.73;2.20;;;;;;;19.52;73.54;99005.66;5068288;28;41316;-73
2021/06/24 05:08:08;;;;;;;2.70;2.07;;;;;;;19.52;73.35;98994.91;5052214;28;40979;-73
2021/06/24 05:10:35;;;;;;;2.13;1.93;;;;;;;19.57;73.34;98997.97;5070822;28;42892;-73
2021/06/24 05:13:03;;;;;;;1.37;1.13;;;;;;;19.55;73.46;99004.50;5068278;28;42192;-75
2021/06/24 05:15:32;;;;;;;2.10;1.70;;;;;;;19.57;73.53;99003.34;5070169;28;40869;-73
2021/06/24 05:18:01;;;;;;;1.90;1.80;;;;;;;19.60;73.19;98997.69;5069888;28;41647;-76
2021/06/24 05:20:28;;;;;;;1.90;1.70;;;;;;;19.62;73.27;99001.06;5053168;28;42392;-76
2021/06/24 05:22:56;;;;;;;1.93;1.73;;;;;;;19.61;73.32;98993.16;5069454;28;42111;-75
2021/06/24 05:25:24;;;;;;;2.60;2.00;;;;;;;19.63;73.21;98996.56;5070405;28;39911;-74
2021/06/24 05:27:52;;;;;;;4.30;2.50;;;;;;;19.63;73.57;98997.41;5053011;28;41811;-76
2021/06/24 05:30:20;;;;;;;2.00;1.80;;;;;;;19.27;73.27;98939.16;5068958;28;42723;-75
2021/06/24 05:32:48;;;;;;;1.50;1.40;;;;;;;19.60;73.51;98989.63;5069871;28;41932;-74
2021/06/24 05:35:17;;;;;;;1.70;1.60;;;;;;;19.66;73.41;98986.31;5068459;28;39163;-73
2021/06/24 05:37:45;;;;;;;1.70;1.60;;;;;;;19.69;73.37;98996.78;5070967;28;41671;-76
2021/06/24 05:40:13;;;;;;;1.60;1.50;;;;;;;19.70;73.67;98993.09;5068901;28;42886;-74
2021/06/24 05:42:41;;;;;;;1.50;1.40;;;;;;;19.72;73.17;98991.13;5052128;28;41549;-78
2021/06/24 05:45:10;;;;;;;1.93;1.20;;;;;;;19.78;73.28;98988.84;5069054;28;39838;-73
2021/06/24 05:47:37;;;;;;;1.90;1.80;;;;;;;19.88;73.12;98989.63;5052986;28;42199;-75
2021/06/24 05:50:06;;;;;;;1.50;1.40;;;;;;;19.91;72.98;98989.28;5068919;28;42966;-77
2021/06/24 05:52:37;;;;;;;1.63;1.53;;;;;;;19.95;73.62;98990.69;5070089;28;43107;-76
2021/06/24 05:55:06;;;;;;;1.30;1.20;;;;;;;20.00;73.04;98996.47;5069193;28;39874;-77
2021/06/24 05:57:34;;;;;;;1.70;1.60;;;;;;;20.06;73.31;98998.53;5069170;28;41559;-74
2021/06/24 06:00:02;;;;;;;1.80;1.70;;;;;;;20.12;73.34;99003.31;5068142;28;42624;-76
2021/06/24 06:02:30;;;;;;;1.97;1.87;;;;;;;20.16;72.95;98999.28;5070328;28;42049;-73
2021/06/24 06:04:57;;;;;;;1.97;1.70;;;;;;;20.20;73.03;99000.69;5069706;28;41044;-75
2021/06/24 06:07:25;;;;;;;1.80;1.70;;;;;;;20.21;72.98;98999.69;5070196;28;42429;-73
2021/06/24 06:09:54;;;;;;;2.73;2.53;;;;;;;20.25;73.11;98995.72;5051975;28;41475;-75
2021/06/24 06:12:22;;;;;;;1.77;1.67;;;;;;;20.28;72.88;98998.06;5069805;28;42282;-73
2021/06/24 06:14:50;;;;;;;2.57;2.37;;;;;;;20.31;73.28;99000.47;5070707;28;40684;-76
2021/06/24 06:17:18;;;;;;;1.33;1.23;;;;;;;20.31;73.30;98992.38;5069381;28;42329;-76
2021/06/24 06:19:46;;;;;;;2.47;2.17;;;;;;;20.33;73.13;99000.31;5069419;28;43442;-76
2021/06/24 06:22:13;;;;;;;1.73;1.63;;;;;;;20.36;73.24;99000.88;5052111;28;42436;-73
2021/06/24 06:24:42;;;;;;;1.63;1.53;;;;;;;20.37;73.21;98994.50;5069180;28;39823;-77
2021/06/24 06:27:12;;;;;;;1.60;1.50;;;;;;;20.36;73.72;98992.81;5067040;28;42123;-78
2021/06/24 06:29:39;;;;;;;1.90;1.80;;;;;;;20.39;73.22;98995.22;5070514;28;42860;-79
2021/06/24 06:32:08;;;;;;;1.90;1.80;;;;;;;20.43;73.18;98996.56;5069997;28;42143;-76
2021/06/24 06:34:35;;;;;;;2.37;2.17;;;;;;;20.51;73.19;98994.97;5085426;28;45545;-73
2021/06/24 06:37:04;;;;;;;2.80;1.90;;;;;;;20.60;73.24;98997.56;5069051;28;41904;-78
2021/06/24 06:39:31;;;;;;;7.83;2.73;;;;;;;20.66;73.07;98996.06;5067616;28;43395;-74
2021/06/24 06:41:59;;;;;;;1.67;1.57;;;;;;;20.87;73.29;98998.44;5069391;28;42621;-75
2021/06/24 06:44:28;;;;;;;2.40;2.17;;;;;;;20.98;73.03;98995.47;5067704;28;39815;-73
2021/06/24 06:46:56;;;;;;;2.27;2.00;;;;;;;21.17;72.37;98993.41;5068449;28;40759;-77
2021/06/24 06:49:23;;;;;;;3.77;1.87;;;;;;;21.35;71.32;98990.69;5070273;28;42041;-76
2021/06/24 06:51:51;;;;;;;1.63;1.53;;;;;;;21.53;70.91;98995.97;5069310;28;42197;-78
2021/06/24 06:54:19;;;;;;;1.87;1.77;;;;;;;21.72;71.01;98974.16;5068191;28;40870;-78
2021/06/24 06:56:47;;;;;;;2.33;2.20;;;;;;;21.91;70.47;98988.34;5067371;28;42391;-77
2021/06/24 06:59:15;;;;;;;1.83;1.73;;;;;;;21.93;70.05;98986.34;5068141;28;42487;-79
2021/06/24 07:01:44;;;;;;;1.60;1.50;;;;;;;21.93;70.22;98972.84;5067104;28;42045;-74
2021/06/24 07:04:12;;;;;;;2.07;1.97;;;;;;;21.97;68.24;98976.91;5068080;28;39102;-77
2021/06/24 07:06:58;;;;;;;1.90;1.80;;;;;;;22.06;68.76;98998.38;5068860;28;41528;-77
2021/06/24 07:09:26;;;;;;;2.17;1.97;;;;;;;22.14;68.72;98986.75;5067176;28;42778;-75
2021/06/24 07:11:54;;;;;;;2.43;2.17;;;;;;;22.23;68.75;98999.25;5074448;28;42709;-75
2021/06/24 07:14:21;;;;;;;2.27;2.00;;;;;;;22.28;68.67;98996.88;5073395;28;39699;-75
2021/06/24 07:16:51;;;;;;;2.00;1.90;;;;;;;22.30;68.69;98997.56;5067683;28;41701;-75
2021/06/24 07:19:18;;;;;;;2.00;1.90;;;;;;;22.25;67.17;98999.94;5071809;28;42539;-76
2021/06/24 07:21:46;;;;;;;2.50;2.30;;;;;;;22.15;66.11;99007.31;5079551;28;42681;-75
2021/06/24 07:24:14;;;;;;;2.40;2.20;;;;;;;22.08;66.15;99007.16;5072462;28;39956;-77
2021/06/24 07:26:42;;;;;;;2.80;2.00;;;;;;;22.07;66.78;98999.22;5067483;28;40633;-78
2021/06/24 07:29:10;;;;;;;2.60;2.37;;;;;;;22.04;66.84;99005.78;5078229;28;43663;-80
2021/06/24 07:31:37;;;;;;;1.57;1.47;;;;;;;22.01;66.78;99003.41;5072769;28;42065;-79
2021/06/24 07:34:07;;;;;;;2.20;1.90;;;;;;;21.94;66.55;99001.50;5075959;28;39606;-80
2021/06/24 07:36:35;;;;;;;1.97;1.87;;;;;;;21.91;66.65;99005.38;5069250;28;41751;-78
2021/06/24 07:39:03;;;;;;;2.40;1.90;;;;;;;21.96;66.67;99002.19;5067869;28;42523;-76
2021/06/24 07:41:31;;;;;;;2.53;2.33;;;;;;;22.03;66.71;99003.25;5075241;28;42737;-74
2021/06/24 07:43:59;;;;;;;2.00;1.70;;;;;;;22.10;66.32;99009.69;5069522;28;40904;-80
2021/06/24 07:46:27;;;;;;;1.70;1.60;;;;;;;22.07;65.74;99004.63;5070824;28;41533;-75
2021/06/24 07:48:54;;;;;;;1.87;1.77;;;;;;;22.06;66.51;99009.16;5079596;28;42751;-77
2021/06/24 07:51:24;;;;;;;2.00;1.90;;;;;;;22.06;66.16;98998.38;5071037;28;42269;-74
2021/06/24 07:53:52;;;;;;;2.87;2.50;;;;;;;22.17;66.51;99005.31;5073577;28;39999;-76
2021/06/24 07:56:19;;;;;;;2.50;2.30;;;;;;;22.24;65.87;99010.91;5053613;28;42058;-77
2021/06/24 07:58:48;;;;;;;2.10;1.90;;;;;;;22.17;65.04;99008.00;5072420;28;42690;-78
2021/06/24 08:01:16;;;;;;;2.53;2.33;;;;;;;22.13;65.49;99012.06;5070442;28;42755;-78
2021/06/24 08:03:44;;;;;;;2.20;1.90;;;;;;;22.16;66.13;99006.31;5073549;28;40728;-75
2021/06/24 08:06:12;;;;;;;2.30;2.10;;;;;;;22.11;65.46;99001.44;5076192;28;40456;-78
2021/06/24 08:08:41;;;;;;;2.30;2.10;;;;;;;22.15;64.71;99008.16;5079229;28;41526;-75
2021/06/24 08:11:09;;;;;;;2.13;1.93;;;;;;;22.17;65.14;99008.84;5072740;28;42866;-73
2021/06/24 08:13:37;;;;;;;2.60;1.70;;;;;;;22.18;64.90;99001.59;5072010;28;39597;-74
2021/06/24 08:16:05;;;;;;;2.07;1.83;;;;;;;22.17;65.17;99006.16;5074260;28;42066;-77
2021/06/24 08:18:33;;;;;;;2.40;2.00;;;;;;;22.16;64.63;99006.31;5072019;28;42448;-76
2021/06/24 08:21:04;;;;;;;1.43;1.33;;;;;;;22.12;64.26;99013.06;5053350;28;41365;-79
2021/06/24 08:23:32;;;;;;;2.53;2.00;;;;;;;22.02;64.47;98996.16;5077641;28;39974;-75
2021/06/24 08:26:01;;;;;;;1.90;1.77;;;;;;;22.03;65.25;99005.94;5064627;28;41194;-75
2021/06/24 08:28:30;;;;;;;2.53;2.33;;;;;;;21.96;64.74;98997.66;5080380;28;41299;-76
2021/06/24 08:31:00;;;;;;;1.53;1.43;;;;;;;21.83;65.12;99005.38;5077260;28;41131;-75
2021/06/24 08:33:28;;;;;;;2.40;2.20;;;;;;;21.64;65.49;99008.31;5080043;28;40874;-74
2021/06/24 08:35:56;;;;;;;2.20;1.90;;;;;;;21.49;66.27;99013.50;5077473;28;41734;-78
2021/06/24 08:38:24;;;;;;;2.10;1.93;;;;;;;21.34;66.69;99007.00;5071873;28;42842;-75
2021/06/24 08:40:52;;;;;;;2.97;2.67;;;;;;;21.08;67.49;98997.06;5070842;28;42043;-76
2021/06/24 08:43:21;;;;;;;2.17;1.97;;;;;;;21.14;68.07;99007.19;5079050;28;40890;-77
2021/06/24 08:45:50;;;;;;;3.07;2.30;;;;;;;21.12;68.15;99013.75;5080896;28;41164;-77
2021/06/24 08:48:20;;;;;;;2.63;2.43;;;;;;;21.07;67.80;99010.69;5090493;28;42842;-75
2021/06/24 08:50:49;;;;;;;2.47;1.90;;;;;;;21.12;68.04;99020.00;5082257;28;42711;-77
2021/06/24 08:53:18;;;;;;;2.70;2.30;;;;;;;21.17;67.79;99023.03;5078694;28;39800;-75
2021/06/24 08:55:50;;;;;;;2.50;2.30;;;;;;;21.22;67.75;99024.44;5072415;28;42437;-76
2021/06/24 08:58:18;;;;;;;2.63;2.43;;;;;;;21.25;68.34;99016.06;5070294;28;42512;-77
2021/06/24 09:00:48;;;;;;;2.93;2.47;;;;;;;21.33;68.42;99010.69;5081528;28;42166;-78
2021/06/24 09:03:18;;;;;;;2.37;2.10;;;;;;;21.49;67.97;99018.88;5078349;28;39916;-79
2021/06/24 09:05:49;;;;;;;2.47;2.00;;;;;;;21.63;68.44;99009.34;5069579;28;42391;-74
2021/06/24 09:08:26;;;;;;;4.30;2.37;;;;;;;21.88;68.69;99006.53;5069677;28;41809;-77
2021/06/24 09:11:18;;;;;;;2.67;2.23;;;;;;;22.21;67.39;99009.38;5069162;28;42164;-75
2021/06/24 09:13:59;;;;;;;2.83;2.30;;;;;;;22.79;66.66;99006.56;5070391;28;38975;-71
2021/06/24 09:16:30;;;;;;;2.30;2.03;;;;;;;23.18;65.14;99022.88;5070829;28;42319;-75
2021/06/24 09:19:19;;;;;;;2.43;2.10;;;;;;;23.29;63.96;99017.13;5071551;28;42928;-81
2021/06/24 09:21:56;;;;;;;2.50;2.30;;;;;;;23.47;63.81;99021.47;5071047;28;42218;-76
2021/06/24 09:24:27;;;;;;;2.87;2.47;;;;;;;23.58;63.31;99018.44;5069202;28;40836;-74
2021/06/24 09:26:56;;;;;;;3.03;2.13;;;;;;;23.82;63.03;99022.88;5070055;28;41788;-77
2021/06/24 09:29:24;;;;;;;3.00;2.53;;;;;;;23.92;61.06;99037.88;5070704;28;42516;-74
2021/06/24 09:31:56;;;;;;;3.00;2.27;;;;;;;23.89;60.27;99042.78;5053205;28;41520;-76
2021/06/24 09:34:25;;;;;;;3.30;2.10;;;;;;;23.73;60.36;99035.63;5069460;28;40711;-78
2021/06/24 09:36:55;;;;;;;3.00;2.67;;;;;;;23.78;59.78;99046.72;5069740;28;41674;-77
2021/06/24 09:39:31;;;;;;;2.50;2.30;;;;;;;23.69;59.28;99058.59;5069621;28;42734;-78
2021/06/24 09:42:01;;;;;;;3.23;2.10;;;;;;;23.82;59.85;99049.94;5070100;28;41959;-77
2021/06/24 09:44:30;;;;;;;2.03;1.83;;;;;;;23.99;59.75;99043.41;5069179;28;39905;-75
2021/06/24 09:47:01;;;;;;;1.97;1.87;;;;;;;24.20;58.88;99056.34;5067308;28;41404;-74
2021/06/24 09:49:32;;;;;;;3.40;2.80;;;;;;;24.23;57.84;99061.44;5068960;28;42644;-74
2021/06/24 09:52:03;;;;;;;2.70;2.50;;;;;;;24.13;58.04;99066.19;5051105;28;41701;-77
2021/06/24 09:54:36;;;;;;;2.80;2.33;;;;;;;23.95;57.33;99070.00;5068106;28;39889;-74
2021/06/24 09:57:05;;;;;;;1.53;1.43;;;;;;;23.77;58.48;99065.84;5067532;28;42595;-77
2021/06/24 09:59:35;;;;;;;2.23;1.97;;;;;;;23.70;58.91;99063.00;5051719;28;42118;-77
2021/06/24 10:02:11;;;;;;;1.97;1.63;;;;;;;23.63;59.42;99062.00;5066593;28;42953;-78
2021/06/24 10:04:41;;;;;;;2.93;2.47;;;;;;;23.54;59.83;99072.00;5051412;28;40478;-77
2021/06/24 10:07:12;;;;;;;2.50;2.30;;;;;;;23.43;59.34;99063.38;5051022;28;40894;-79
2021/06/24 10:09:41;;;;;;;2.67;2.17;;;;;;;23.32;59.09;99071.84;5067710;28;41551;-78
2021/06/24 10:12:11;;;;;;;1.70;1.57;;;;;;;23.27;59.49;99064.25;5068083;28;41979;-79
2021/06/24 10:14:40;;;;;;;1.93;1.73;;;;;;;23.21;59.71;99068.50;5069363;28;40494;-80
2021/06/24 10:17:10;;;;;;;2.10;1.90;;;;;;;23.18;60.04;99066.13;5068887;28;41614;-76
2021/06/24 10:19:40;;;;;;;2.20;1.87;;;;;;;23.10;60.52;99060.75;5051303;28;41358;-75
2021/06/24 10:22:14;;;;;;;1.67;1.40;;;;;;;23.16;60.58;99068.16;5067929;28;41946;-77
2021/06/24 10:24:47;;;;;;;1.80;1.67;;;;;;;23.17;60.39;99069.84;5051179;28;39034;-77
2021/06/24 10:27:17;;;;;;;3.03;2.47;;;;;;;23.15;60.49;99073.72;5067808;28;42278;-76
2021/06/24 10:29:48;;;;;;;2.13;1.80;;;;;;;23.17;60.41;99075.25;5067435;28;42645;-76
2021/06/24 10:32:26;;;;;;;1.87;1.73;;;;;;;23.26;60.53;99074.22;5050727;28;41991;-79
2021/06/24 10:34:55;;;;;;;8.53;3.60;;;;;;;23.34;60.47;99076.06;5067443;28;39785;-78
2021/06/24 10:37:24;;;;;;;2.47;2.27;;;;;;;23.47;60.29;99070.13;5068348;28;41603;-78
2021/06/24 10:39:54;;;;;;;2.00;1.80;;;;;;;23.39;60.58;99049.34;5068772;28;42516;-80
2021/06/24 10:42:23;;;;;;;2.53;1.97;;;;;;;23.59;59.89;99068.78;5020968;28;1320782;-80
2021/06/24 10:44:54;;;;;;;2.40;2.17;;;;;;;23.69;60.09;99072.13;5051905;28;39077;-79
2021/06/24 10:47:45;;;;;;;2.83;2.47;;;;;;;23.77;59.80;99071.25;5051913;28;40427;-81
2021/06/24 10:50:49;;;;;;;1.93;1.77;;;;;;;23.83;59.76;99074.09;5027553;28;41658;-80
2021/06/24 10:53:46;;;;;;;1.87;1.70;;;;;;;23.88;59.18;99063.59;5049712;28;41819;-81
2021/06/24 10:56:44;;;;;;;4.30;2.97;;;;;;;23.94;58.93;99068.31;5042623;28;39823;-79
2021/06/24 10:59:32;;;;;;;2.37;2.13;;;;;;;24.06;59.43;99067.91;5056055;28;41687;-79
2021/06/24 11:02:11;;;;;;;2.70;2.40;;;;;;;24.13;59.01;99071.59;5084765;28;41827;-77
2021/06/24 11:04:46;;;;;;;2.33;2.10;;;;;;;24.14;59.25;99062.47;5068126;28;41262;-79
2021/06/24 11:07:22;;;;;;;2.07;1.90;;;;;;;24.16;58.85;99060.41;5069027;28;41567;-81
2021/06/24 11:10:19;;;;;;;2.03;1.83;;;;;;;24.13;59.26;99056.19;5068145;28;41754;-78
2021/06/24 11:13:02;;;;;;;2.23;1.80;;;;;;;24.16;59.32;99049.59;5069674;28;43427;-79
2021/06/24 11:15:51;;;;;;;2.53;2.33;;;;;;;24.18;58.96;99047.56;5071553;28;42159;-78
2021/06/24 11:18:51;;;;;;;2.00;1.80;;;;;;;24.11;58.64;99062.84;5054905;28;40111;-79
2021/06/24 11:21:24;;;;;;;2.30;2.10;;;;;;;23.97;58.85;99057.16;5071919;28;40444;-79
2021/06/24 11:23:54;;;;;;;2.07;1.87;;;;;;;23.90;59.42;99053.44;5072166;28;43458;-81
2021/06/24 11:26:31;;;;;;;2.53;2.00;;;;;;;23.90;59.39;99053.44;5051883;28;41848;-77
2021/06/24 11:29:02;;;;;;;2.40;2.20;;;;;;;24.10;59.44;99053.03;5052281;28;39118;-79
2021/06/24 11:31:39;;;;;;;2.27;2.07;;;;;;;24.33;58.96;99045.81;5068094;28;40900;-79
2021/06/24 11:34:15;;;;;;;2.10;2.00;;;;;;;24.54;58.38;99058.69;5051027;28;41586;-78
2021/06/24 11:36:49;;;;;;;2.47;1.73;;;;;;;24.70;57.56;99054.00;5050732;28;45935;-80
2021/06/24 11:39:24;;;;;;;2.80;2.60;;;;;;;24.89;56.67;99057.25;5033754;28;38812;-78
2021/06/24 11:41:59;;;;;;;1.87;1.73;;;;;;;25.01;56.65;99058.53;5044308;28;42117;-80
2021/06/24 11:44:30;;;;;;;2.60;2.13;;;;;;;25.21;56.29;99056.16;5071730;28;42439;-80
2021/06/24 11:47:02;;;;;;;1.90;1.77;;;;;;;25.30;56.72;99045.03;5054468;28;41283;-78
2021/06/24 12:04:01;;;;;;;3.83;2.10;;;;;;;26.43;52.94;99045.53;5027565;28;41566;-77
2021/06/24 12:06:44;;;;;;;1.67;1.47;;;;;;;26.39;52.38;99052.38;5050379;28;44894;-80
2021/06/24 12:09:19;;;;;;;1.93;1.70;;;;;;;26.30;52.66;99044.56;5068426;28;42230;-80